Time;durP1;ratioP1;P1;durP2;ratioP2;P2;SDS_P1;SDS_P2;PMS_P1;PMS_P2;Temp;Humidity;BMP_temperature;BMP_pressure;BME280_temperature;BME280_humidity;BME280_pressure;Samples;Min_cycle;Max_cycle;Signal;HPM_P1;HPM_P2
2022/05/29 00:00:41;;;;;;;5.85;2.22;;;;;;;26.11;38.46;95745.75;5113957;28;20023;-36
2022/05/29 00:03:07;;;;;;;3.53;1.42;;;;;;;26.13;38.49;95743.19;5113761;28;20036;-35
2022/05/29 00:05:35;;;;;;;8.45;1.98;;;;;;;26.15;38.30;95744.66;5114194;28;20027;-35
2022/05/29 00:08:01;;;;;;;5.15;1.52;;;;;;;26.10;38.22;95743.53;5113836;28;20028;-36
2022/05/29 00:10:27;;;;;;;4.97;1.63;;;;;;;26.10;38.59;95744.25;5113668;28;20019;-35
2022/05/29 00:12:52;;;;;;;6.22;1.98;;;;;;;26.09;38.40;95742.78;5113759;28;20027;-35
2022/05/29 00:15:18;;;;;;;4.13;1.60;;;;;;;26.11;38.65;95737.41;5113579;28;20084;-35
2022/05/29 00:17:43;;;;;;;5.00;1.92;;;;;;;26.09;38.28;95731.66;5113546;28;20023;-35
2022/05/29 00:20:09;;;;;;;5.00;2.00;;;;;;;26.12;38.46;95730.56;5113772;28;20069;-36
2022/05/29 00:22:35;;;;;;;5.80;2.25;;;;;;;26.08;38.67;95726.69;5113822;28;20027;-35
2022/05/29 00:25:04;;;;;;;7.63;2.10;;;;;;;26.08;38.55;95723.91;5113689;28;20054;-36
2022/05/29 00:27:30;;;;;;;5.40;2.08;;;;;;;26.04;38.42;95724.22;5113654;28;20029;-36
2022/05/29 00:29:55;;;;;;;6.65;1.90;;;;;;;26.07;38.84;95722.41;5113601;28;20106;-35
2022/05/29 00:32:21;;;;;;;5.60;2.10;;;;;;;26.01;38.60;95728.09;5113574;28;20077;-36
2022/05/29 00:34:46;;;;;;;5.00;2.00;;;;;;;26.04;38.58;95727.00;5113708;28;20438;-35
2022/05/29 00:37:12;;;;;;;5.95;1.70;;;;;;;26.08;38.59;95724.63;5113651;28;20080;-35
2022/05/29 00:39:38;;;;;;;4.97;1.58;;;;;;;26.07;39.01;95720.38;5113588;28;20376;-36
2022/05/29 00:42:06;;;;;;;5.68;2.00;;;;;;;26.00;38.76;95723.84;5113329;28;20375;-35
2022/05/29 00:44:33;;;;;;;5.65;2.10;;;;;;;26.03;38.62;95714.41;5113741;28;20103;-35
2022/05/29 00:47:20;;;;;;;3.83;1.70;;;;;;;26.04;38.57;95715.91;5113496;28;20111;-36
2022/05/29 00:49:48;;;;;;;3.78;1.88;;;;;;;25.97;38.99;95707.50;5113162;28;20398;-35
2022/05/29 00:52:23;;;;;;;5.32;1.75;;;;;;;25.96;39.02;95706.78;5113628;28;20024;-35
2022/05/29 00:54:56;;;;;;;4.78;2.15;;;;;;;25.96;39.14;95698.44;5119062;28;20083;-35
2022/05/29 00:57:40;;;;;;;4.57;1.77;;;;;;;26.00;38.89;95696.03;5132026;27;20403;-35
2022/05/29 01:00:15;;;;;;;4.93;1.98;;;;;;;25.94;39.02;95695.47;5133829;28;20015;-35
2022/05/29 01:02:42;;;;;;;4.50;1.75;;;;;;;25.96;38.69;95698.44;5133835;28;20062;-36
2022/05/29 01:05:10;;;;;;;5.57;2.22;;;;;;;25.90;39.08;95694.31;5133908;28;20519;-35
2022/05/29 01:07:37;;;;;;;3.20;1.88;;;;;;;25.95;38.41;95694.19;5133652;28;20034;-35
2022/05/29 01:10:05;;;;;;;8.45;1.65;;;;;;;25.94;38.81;95694.72;5133890;28;20019;-35
2022/05/29 01:13:20;;;;;;;4.68;2.20;;;;;;;25.91;38.75;95698.59;5134293;28;20027;-35
2022/05/29 01:16:22;;;;;;;7.38;1.67;;;;;;;25.94;38.55;95692.69;5133219;28;20106;-36
2022/05/29 01:19:00;;;;;;;6.43;2.30;;;;;;;25.86;38.59;95683.56;5133966;28;20026;-35
2022/05/29 01:21:44;;;;;;;4.40;1.90;;;;;;;25.80;38.73;95677.41;5133796;28;20031;-35
2022/05/29 01:24:54;;;;;;;4.47;1.80;;;;;;;25.91;38.47;95677.09;5133795;28;20428;-36
2022/05/29 01:27:28;;;;;;;5.25;2.05;;;;;;;25.83;38.69;95670.03;5133693;27;20015;-35
2022/05/29 01:30:14;;;;;;;4.65;1.83;;;;;;;25.84;38.95;95669.47;5137334;27;20031;-35
2022/05/29 01:32:50;;;;;;;4.90;1.77;;;;;;;25.90;38.51;95670.06;5137351;27;20031;-36
2022/05/29 01:35:32;;;;;;;4.68;1.80;;;;;;;25.82;38.94;95666.50;5137200;27;20034;-35
2022/05/29 01:37:57;;;;;;;7.03;1.80;;;;;;;25.88;38.56;95660.78;5137672;27;20475;-35
2022/05/29 01:40:35;;;;;;;6.97;2.08;;;;;;;25.85;38.72;95659.84;5136975;27;20110;-36
2022/05/29 01:43:25;;;;;;;4.57;2.00;;;;;;;25.82;38.80;95669.28;5137239;27;20030;-37
2022/05/29 01:46:06;;;;;;;3.20;1.75;;;;;;;25.80;38.91;95660.00;5136379;27;20431;-35
2022/05/29 01:48:56;;;;;;;5.30;2.10;;;;;;;25.82;38.79;95660.94;5136971;27;20034;-35
2022/05/29 01:51:26;;;;;;;7.07;2.72;;;;;;;25.80;38.51;95654.44;5137096;27;20027;-35
2022/05/29 01:54:04;;;;;;;6.43;2.10;;;;;;;25.86;38.72;95641.88;5137073;27;20055;-36
2022/05/29 01:56:52;;;;;;;5.47;1.95;;;;;;;25.84;38.69;95658.34;5136874;27;20023;-35
2022/05/29 01:59:33;;;;;;;8.07;2.10;;;;;;;25.84;38.58;95660.41;5136777;27;20050;-36
2022/05/29 02:02:05;;;;;;;5.63;2.17;;;;;;;25.83;38.58;95662.44;5136765;27;20098;-35
2022/05/29 02:04:36;;;;;;;4.85;1.65;;;;;;;25.83;38.80;95659.66;5137297;27;20023;-35
2022/05/29 02:09:57;;;;;;;4.60;1.67;;;;;;;25.87;38.38;95662.81;5136954;27;20091;-36
2022/05/29 02:12:26;;;;;;;3.60;1.83;;;;;;;25.87;38.42;95664.84;5136525;27;20031;-35
2022/05/29 02:15:07;;;;;;;5.32;2.08;;;;;;;25.88;38.67;95664.31;5136535;27;20030;-35
2022/05/29 02:17:42;;;;;;;4.93;2.20;;;;;;;25.77;38.80;95661.84;5136494;27;20019;-35
2022/05/29 02:20:08;;;;;;;4.90;2.03;;;;;;;25.75;38.78;95669.97;5136421;27;20055;-36
2022/05/29 02:22:35;;;;;;;7.25;2.20;;;;;;;25.80;38.89;95662.78;5117806;27;20442;-36
2022/05/29 02:25:14;;;;;;;5.22;2.00;;;;;;;25.82;38.81;95663.72;5136248;27;20046;-35
2022/05/29 02:28:05;;;;;;;6.10;2.03;;;;;;;25.77;38.88;95670.16;5136620;27;20481;-35
2022/05/29 02:30:38;;;;;;;4.25;2.00;;;;;;;25.76;39.05;95668.69;5136180;27;20391;-36
2022/05/29 02:33:14;;;;;;;5.93;2.03;;;;;;;25.75;39.12;95659.59;5136392;27;20046;-37
2022/05/29 02:36:19;;;;;;;4.85;1.88;;;;;;;25.75;39.03;95658.84;5136191;27;20102;-36
2022/05/29 02:38:59;;;;;;;5.70;2.40;;;;;;;25.77;38.97;95657.03;5135548;27;20027;-35
2022/05/29 02:41:44;;;;;;;5.03;1.90;;;;;;;25.72;38.80;95660.69;5136165;27;20026;-35
2022/05/29 02:44:18;;;;;;;5.70;2.20;;;;;;;25.70;39.08;95662.53;5117310;27;20107;-35
2022/05/29 02:47:18;;;;;;;7.53;2.70;;;;;;;25.75;39.19;95661.63;5135965;27;20390;-35
2022/05/29 02:50:17;;;;;;;5.90;1.90;;;;;;;25.72;39.15;95657.16;5135971;27;20030;-36
2022/05/29 02:52:43;;;;;;;4.85;2.17;;;;;;;25.66;39.32;95653.81;5136041;27;20023;-36
2022/05/29 02:55:09;;;;;;;6.05;2.20;;;;;;;25.75;39.24;95661.63;5135951;27;20030;-35
2022/05/29 02:57:34;;;;;;;3.92;2.05;;;;;;;25.76;39.10;95661.09;5135672;27;20039;-35
2022/05/29 03:00:11;;;;;;;4.30;2.00;;;;;;;25.73;38.97;95658.66;5135420;27;20031;-35
2022/05/29 03:02:45;;;;;;;4.78;1.58;;;;;;;25.77;39.05;95659.06;5135659;27;20031;-35
2022/05/29 03:05:31;;;;;;;6.22;1.77;;;;;;;25.74;39.05;95657.38;5135559;27;20031;-35
2022/05/29 03:08:15;;;;;;;5.70;1.90;;;;;;;25.70;39.39;95654.22;5135281;27;20471;-36
2022/05/29 03:10:48;;;;;;;3.65;1.77;;;;;;;25.70;39.39;95657.00;5135244;27;20011;-35
2022/05/29 03:13:43;;;;;;;4.57;2.13;;;;;;;25.71;39.38;95666.81;5135445;27;20446;-36
2022/05/29 03:16:38;;;;;;;5.13;2.00;;;;;;;25.76;39.01;95668.69;5116296;27;20121;-35
2022/05/29 03:19:31;;;;;;;4.05;1.92;;;;;;;25.76;39.21;95666.66;5135181;27;20142;-35
2022/05/29 03:22:34;;;;;;;6.43;2.15;;;;;;;25.74;39.47;95665.69;5135100;27;20019;-35
2022/05/29 03:25:08;;;;;;;6.07;2.03;;;;;;;25.71;39.33;95675.16;5135222;27;20035;-35
2022/05/29 03:27:41;;;;;;;4.63;2.30;;;;;;;25.79;39.57;95675.19;5135233;27;20023;-35
2022/05/29 03:30:39;;;;;;;3.63;1.73;;;;;;;25.71;39.58;95669.59;5134955;27;20027;-35
2022/05/29 03:33:08;;;;;;;6.22;2.35;;;;;;;25.72;39.70;95671.78;5130282;27;20027;-35
2022/05/29 03:35:46;;;;;;;6.03;2.67;;;;;;;25.59;40.03;95674.63;5134998;27;20050;-35
2022/05/29 03:38:12;;;;;;;4.30;2.15;;;;;;;25.71;39.82;95675.16;5134852;27;20027;-35
2022/05/29 03:40:39;;;;;;;6.13;2.50;;;;;;;25.62;39.87;95676.34;5135163;27;20421;-35
2022/05/29 03:43:05;;;;;;;4.18;2.28;;;;;;;25.63;39.91;95674.31;5134815;27;20030;-35
2022/05/29 03:45:31;;;;;;;4.95;2.33;;;;;;;25.66;40.10;95670.47;5116578;27;20019;-35
2022/05/29 03:47:56;;;;;;;4.53;2.05;;;;;;;25.66;39.88;95667.69;5134970;27;20015;-36
2022/05/29 03:50:23;;;;;;;5.43;2.13;;;;;;;25.62;40.18;95667.28;5134286;27;20021;-35
2022/05/29 03:52:49;;;;;;;6.82;2.10;;;;;;;25.62;40.14;95670.06;5134583;27;20015;-35
2022/05/29 03:55:20;;;;;;;4.00;1.77;;;;;;;25.66;40.14;95681.56;5134499;27;20080;-35
2022/05/29 03:57:46;;;;;;;4.60;2.22;;;;;;;25.65;39.95;95682.88;5134455;27;20050;-35
2022/05/29 04:00:13;;;;;;;5.30;2.28;;;;;;;25.61;40.14;95679.69;5134743;27;20027;-35
2022/05/29 04:02:40;;;;;;;4.13;2.28;;;;;;;25.59;40.41;95685.03;5134339;27;20019;-35
2022/05/29 04:05:10;;;;;;;4.70;1.92;;;;;;;25.63;40.40;95691.00;5134463;27;20019;-35
2022/05/29 04:13:04;;;;;;;3.90;2.30;;;;;;;25.67;40.06;95691.41;5134553;27;20034;-35
2022/05/29 04:15:30;;;;;;;4.80;2.15;;;;;;;25.66;40.42;95689.91;5134292;28;20027;-35
2022/05/29 04:17:56;;;;;;;4.93;2.22;;;;;;;25.66;40.40;95698.97;5134494;28;20064;-36
2022/05/29 04:20:21;;;;;;;4.10;2.20;;;;;;;25.61;40.56;95701.88;5134173;28;20086;-35
2022/05/29 04:22:47;;;;;;;4.30;2.28;;;;;;;25.58;40.67;95694.66;5134151;28;20027;-35
2022/05/29 04:25:12;;;;;;;5.60;2.55;;;;;;;25.60;41.02;95692.03;5134336;28;20031;-35
2022/05/29 04:27:38;;;;;;;4.90;2.28;;;;;;;25.55;41.03;95684.63;5134133;28;20038;-36
2022/05/29 04:30:05;;;;;;;6.28;2.38;;;;;;;25.58;40.98;95691.88;5134266;28;20474;-35
2022/05/29 04:35:15;;;;;;;5.90;2.13;;;;;;;25.64;41.06;95676.56;5134396;28;20115;-35
2022/05/29 04:37:40;;;;;;;5.68;2.10;;;;;;;25.54;41.43;95685.91;5134179;28;20022;-35
2022/05/29 04:40:07;;;;;;;4.65;1.98;;;;;;;25.49;41.43;95686.78;5115784;28;20023;-35
2022/05/29 04:42:33;;;;;;;4.50;2.30;;;;;;;25.51;41.82;95690.50;5133930;28;20083;-35
2022/05/29 04:44:59;;;;;;;5.40;1.83;;;;;;;25.48;41.86;95696.38;5134026;28;20083;-35
2022/05/29 04:47:24;;;;;;;5.82;2.15;;;;;;;25.51;41.64;95692.53;5134069;28;20027;-36
2022/05/29 04:49:50;;;;;;;4.32;2.25;;;;;;;25.50;41.71;95688.28;5134103;28;20026;-35
2022/05/29 04:52:15;;;;;;;5.25;2.22;;;;;;;25.53;41.67;95687.19;5133920;28;20088;-35
2022/05/29 04:54:41;;;;;;;3.58;2.25;;;;;;;25.52;41.64;95677.38;5134082;28;20467;-35
2022/05/29 04:57:08;;;;;;;5.93;2.78;;;;;;;25.51;41.85;95681.44;5133709;28;20033;-35
2022/05/29 04:59:34;;;;;;;5.78;2.25;;;;;;;25.52;41.84;95674.59;5134167;28;20047;-35
2022/05/29 05:02:01;;;;;;;6.30;2.03;;;;;;;25.42;42.22;95677.13;5134658;27;20027;-35
2022/05/29 05:04:27;;;;;;;4.35;2.10;;;;;;;25.53;41.90;95670.53;5119459;27;20476;-36
2022/05/29 05:06:58;;;;;;;4.93;1.80;;;;;;;25.51;42.04;95667.56;5137976;27;20030;-35
2022/05/29 05:09:25;;;;;;;6.03;2.08;;;;;;;25.50;41.90;95657.72;5137764;27;20414;-35
2022/05/29 05:11:52;;;;;;;3.85;1.73;;;;;;;25.45;42.02;95666.97;5137865;27;20038;-35
2022/05/29 05:14:19;;;;;;;4.22;1.63;;;;;;;25.55;41.76;95662.41;5137797;27;20370;-35
2022/05/29 05:16:46;;;;;;;5.10;2.42;;;;;;;25.53;41.92;95664.97;5119438;27;20134;-35
2022/05/29 05:19:11;;;;;;;5.47;1.83;;;;;;;25.50;42.29;95657.72;5137597;27;20031;-35
2022/05/29 05:21:37;;;;;;;2.65;1.73;;;;;;;25.53;41.92;95664.97;5137776;27;20110;-35
2022/05/29 05:24:04;;;;;;;4.40;1.85;;;;;;;25.43;42.20;95673.06;5137340;27;20068;-35
2022/05/29 05:26:30;;;;;;;3.42;1.63;;;;;;;25.48;42.25;95658.28;5137681;27;20027;-35
2022/05/29 05:28:55;;;;;;;5.78;1.88;;;;;;;25.52;42.08;95663.50;5137360;27;20072;-35
2022/05/29 05:31:21;;;;;;;3.67;1.83;;;;;;;25.29;43.02;95652.22;5137457;27;20027;-35
2022/05/29 05:33:46;;;;;;;5.93;1.98;;;;;;;25.36;42.57;95652.25;5137117;27;20039;-35
2022/05/29 05:36:14;;;;;;;4.40;1.60;;;;;;;25.39;42.62;95651.19;5132942;27;20075;-37
2022/05/29 05:38:39;;;;;;;4.70;1.65;;;;;;;25.37;42.44;95641.91;5114662;28;20851;-35
2022/05/29 05:41:08;;;;;;;2.97;1.58;;;;;;;25.46;42.06;95651.81;5114570;28;20067;-35
2022/05/29 05:43:33;;;;;;;2.83;1.60;;;;;;;25.39;42.61;95650.44;5114708;28;20027;-35
2022/05/29 05:45:59;;;;;;;4.18;1.52;;;;;;;25.46;42.36;95655.31;5114575;28;20031;-35
2022/05/29 05:48:29;;;;;;;5.78;1.73;;;;;;;25.52;41.90;95642.03;5117588;27;20023;-35
2022/05/29 05:50:58;;;;;;;3.72;1.80;;;;;;;25.42;42.58;95641.78;5132994;27;20053;-35
2022/05/29 05:53:24;;;;;;;3.00;1.77;;;;;;;25.48;42.37;95646.41;5135040;27;20019;-36
2022/05/29 05:55:50;;;;;;;4.50;1.70;;;;;;;25.47;42.31;95636.63;5134794;27;20427;-35
2022/05/29 05:58:15;;;;;;;2.78;1.70;;;;;;;25.51;42.30;95634.22;5122964;27;20149;-35
2022/05/29 06:00:44;;;;;;;2.92;1.50;;;;;;;25.47;42.33;95626.25;5112477;28;20031;-35
2022/05/29 06:03:09;;;;;;;3.58;1.45;;;;;;;25.49;42.07;95632.00;5114085;28;20036;-36
2022/05/29 06:05:35;;;;;;;4.32;1.40;;;;;;;25.46;42.36;95630.34;5113832;28;20580;-35
2022/05/29 06:08:00;;;;;;;2.83;1.55;;;;;;;25.46;42.25;95633.13;5114145;28;20032;-35
2022/05/29 06:10:26;;;;;;;4.22;1.80;;;;;;;25.41;42.41;95634.00;5112819;28;20171;-35
2022/05/29 06:12:52;;;;;;;3.20;1.60;;;;;;;25.42;42.67;95627.91;5113811;28;20023;-37
2022/05/29 06:15:17;;;;;;;4.80;1.50;;;;;;;25.47;42.62;95634.56;5113110;28;20027;-35
2022/05/29 06:17:43;;;;;;;4.63;1.88;;;;;;;25.44;42.55;95637.72;5114014;28;20020;-35
2022/05/29 06:20:09;;;;;;;5.40;1.85;;;;;;;25.50;42.17;95638.31;5113947;28;20019;-36
2022/05/29 06:22:40;;;;;;;4.18;1.70;;;;;;;25.43;42.52;95634.19;5113815;27;20387;-35
2022/05/29 06:25:07;;;;;;;2.38;1.25;;;;;;;25.41;42.45;95643.06;5109188;28;20028;-35
2022/05/29 06:27:37;;;;;;;3.28;1.48;;;;;;;25.46;42.34;95638.66;5093312;28;20028;-35
2022/05/29 06:30:04;;;;;;;2.92;1.48;;;;;;;25.32;42.75;95621.34;5093236;28;20426;-35
2022/05/29 06:32:30;;;;;;;3.67;1.60;;;;;;;25.40;42.37;95613.81;5092827;28;20444;-35
2022/05/29 06:34:56;;;;;;;3.90;1.77;;;;;;;25.28;42.85;95617.44;5093241;28;20035;-35
2022/05/29 06:37:21;;;;;;;5.57;1.90;;;;;;;25.31;42.89;95627.44;5092984;28;20032;-36
2022/05/29 06:39:47;;;;;;;2.42;1.38;;;;;;;25.36;42.54;95627.28;5093231;28;20075;-35
2022/05/29 06:42:13;;;;;;;5.22;1.50;;;;;;;25.28;42.97;95626.50;5095744;28;20024;-35
2022/05/29 06:44:40;;;;;;;4.60;1.63;;;;;;;25.21;43.06;95623.66;5093011;28;20031;-36
2022/05/29 06:47:10;;;;;;;2.60;1.70;;;;;;;25.28;42.97;95620.94;5098612;28;20582;-35
2022/05/29 06:49:36;;;;;;;3.03;1.40;;;;;;;25.13;43.29;95623.59;5091100;28;20135;-35
2022/05/29 06:52:07;;;;;;;3.75;1.60;;;;;;;25.31;42.84;95625.41;5090694;28;20055;-35
2022/05/29 06:54:33;;;;;;;7.30;1.83;;;;;;;25.26;43.04;95631.84;5098481;28;20139;-35
2022/05/29 06:56:59;;;;;;;4.68;1.60;;;;;;;25.22;43.05;95620.34;5113719;27;20600;-35
2022/05/29 06:59:24;;;;;;;4.82;1.67;;;;;;;25.15;43.30;95626.56;5133756;27;20110;-35
2022/05/29 07:07:18;;;;;;;5.70;1.95;;;;;;;25.13;43.52;95623.59;5133218;27;20030;-37
2022/05/29 07:09:43;;;;;;;3.45;1.60;;;;;;;25.27;42.97;95621.50;5133404;27;20027;-35
2022/05/29 07:12:19;;;;;;;3.47;2.13;;;;;;;25.26;42.78;95629.06;5132875;27;20023;-35
2022/05/29 07:14:52;;;;;;;10.70;2.97;;;;;;;25.29;42.99;95625.22;5133200;27;20058;-37
2022/05/29 07:17:22;;;;;;;;;;;;;;;25.21;42.97;95624.41;5133331;27;20112;-35
2022/05/29 07:19:48;;;;;;;4.43;1.98;;;;;;;25.18;43.27;95625.50;5135260;27;19945;-35
2022/05/29 07:22:14;;;;;;;5.30;1.85;;;;;;;25.29;42.96;95630.75;5135122;27;20047;-35
2022/05/29 07:24:40;;;;;;;6.00;2.28;;;;;;;25.07;43.92;95633.34;5134954;27;20114;-35
2022/05/29 07:27:06;;;;;;;3.63;1.88;;;;;;;24.98;44.27;95634.56;5133997;27;20023;-36
2022/05/29 07:29:32;;;;;;;6.63;2.08;;;;;;;24.91;44.74;95633.19;5134809;27;20027;-35
2022/05/29 07:31:58;;;;;;;6.97;2.15;;;;;;;24.84;44.37;95639.41;5134814;27;20471;-35
2022/05/29 07:34:24;;;;;;;3.63;1.70;;;;;;;24.88;44.23;95633.53;5135256;27;20026;-35
2022/05/29 07:36:51;;;;;;;5.35;2.13;;;;;;;24.99;43.96;95645.13;5134973;27;20075;-35
2022/05/29 07:39:19;;;;;;;6.20;2.20;;;;;;;24.96;44.32;95637.91;5134734;27;20102;-35
2022/05/29 07:44:29;;;;;;;5.20;1.95;;;;;;;25.00;44.28;95638.28;5134987;27;20068;-35
2022/05/29 07:46:55;;;;;;;7.18;2.03;;;;;;;25.09;43.85;95634.31;5134779;27;20110;-36
2022/05/29 07:49:21;;;;;;;5.60;2.20;;;;;;;25.14;43.68;95636.19;5134691;27;20019;-35
2022/05/29 07:51:47;;;;;;;5.35;1.88;;;;;;;25.08;44.09;95638.38;5134680;27;20364;-35
2022/05/29 07:54:13;;;;;;;5.68;1.95;;;;;;;24.98;44.24;95635.31;5134479;27;20015;-35
2022/05/29 07:56:39;;;;;;;4.68;1.77;;;;;;;24.97;44.27;95641.41;5134405;27;20026;-36
2022/05/29 07:59:05;;;;;;;6.85;2.28;;;;;;;25.01;43.92;95634.22;5134578;27;20070;-35
2022/05/29 08:01:31;;;;;;;4.95;1.67;;;;;;;25.19;43.20;95626.25;5134446;27;20095;-35
2022/05/29 08:03:56;;;;;;;5.60;2.00;;;;;;;25.13;43.51;95623.59;5134353;27;20050;-35
2022/05/29 08:06:22;;;;;;;3.38;1.95;;;;;;;25.21;43.41;95618.88;5115880;27;20031;-35
2022/05/29 08:08:48;;;;;;;3.38;2.15;;;;;;;25.24;43.52;95631.63;5134499;27;20478;-36
2022/05/29 08:11:17;;;;;;;6.10;2.30;;;;;;;25.22;43.24;95625.88;5134439;27;20031;-35
2022/05/29 08:13:43;;;;;;;3.80;1.70;;;;;;;25.15;43.56;95631.38;5134289;27;20039;-35
2022/05/29 08:16:08;;;;;;;5.18;2.42;;;;;;;25.22;43.08;95634.22;5134283;28;20134;-35
2022/05/29 08:18:33;;;;;;;6.13;2.20;;;;;;;25.20;43.58;95639.56;5134252;28;20375;-35
2022/05/29 08:20:59;;;;;;;5.25;1.85;;;;;;;24.94;44.05;95636.94;5134264;28;20072;-35
2022/05/29 08:23:26;;;;;;;5.53;1.73;;;;;;;24.97;44.09;95635.88;5134511;28;20019;-35
2022/05/29 08:31:08;;;;;;;4.57;2.20;;;;;;;25.05;43.81;95631.88;5134613;28;20451;-35
2022/05/29 08:33:36;;;;;;;5.68;2.22;;;;;;;25.18;43.48;95635.84;5134192;28;20065;-35
2022/05/29 08:36:10;;;;;;;6.80;2.25;;;;;;;25.17;43.60;95631.59;5133838;28;20034;-35
2022/05/29 08:38:39;;;;;;;6.28;2.50;;;;;;;25.06;43.99;95638.16;5137790;27;20471;-35
2022/05/29 08:41:10;;;;;;;7.70;2.40;;;;;;;24.90;44.05;95637.25;5138233;27;20436;-36
2022/05/29 08:43:45;;;;;;;3.83;1.85;;;;;;;24.99;43.81;95641.59;5137795;27;20055;-35
2022/05/29 08:46:28;;;;;;;4.18;2.20;;;;;;;24.96;43.87;95642.69;5138614;27;20371;-36
2022/05/29 08:48:54;;;;;;;5.88;2.40;;;;;;;24.95;43.98;95636.41;5138214;27;20034;-35
2022/05/29 08:51:58;;;;;;;3.63;2.03;;;;;;;25.18;43.23;95633.81;5138188;27;20387;-35
2022/05/29 08:54:42;;;;;;;5.78;2.30;;;;;;;25.24;42.76;95637.19;5138324;27;20023;-35
2022/05/29 08:57:26;;;;;;;6.32;2.25;;;;;;;24.85;45.15;95640.16;5138190;27;20050;-35
2022/05/29 09:00:00;;;;;;;5.97;2.55;;;;;;;24.88;44.33;95633.53;5137945;27;20055;-36
2022/05/29 09:02:37;;;;;;;7.50;2.75;;;;;;;24.72;45.27;95638.19;5137795;27;20030;-35
2022/05/29 09:05:27;;;;;;;7.82;2.30;;;;;;;24.75;45.00;95645.41;5137902;27;20102;-35
2022/05/29 09:07:57;;;;;;;6.57;2.65;;;;;;;24.98;44.63;95642.88;5137977;27;20023;-36
2022/05/29 09:10:34;;;;;;;6.05;2.83;;;;;;;25.09;44.39;95644.66;5137712;27;20467;-35
2022/05/29 09:13:04;;;;;;;6.22;2.25;;;;;;;25.02;44.43;95644.03;5137951;27;20351;-35
2022/05/29 09:15:36;;;;;;;5.13;2.97;;;;;;;25.22;43.92;95642.53;5137037;27;20018;-35
2022/05/29 09:18:12;;;;;;;6.72;2.60;;;;;;;25.27;43.60;95640.91;5118935;27;20412;-35
2022/05/29 09:20:49;;;;;;;7.88;2.25;;;;;;;24.85;44.27;95640.88;5115174;28;20110;-35
2022/05/29 09:23:20;;;;;;;5.03;2.00;;;;;;;24.86;44.11;95650.69;5116877;28;20024;-35
2022/05/29 09:25:46;;;;;;;8.88;2.55;;;;;;;24.84;44.12;95644.22;5117055;28;20062;-35
2022/05/29 09:28:35;;;;;;;5.80;2.00;;;;;;;24.87;43.99;95638.31;5116981;28;20027;-35
2022/05/29 09:31:10;;;;;;;7.60;1.95;;;;;;;24.77;44.29;95636.56;5116740;28;20066;-36
2022/05/29 09:33:37;;;;;;;5.30;2.20;;;;;;;24.87;44.19;95635.53;5117053;28;20540;-35
2022/05/29 09:36:19;;;;;;;6.57;2.58;;;;;;;25.00;43.88;95645.84;5116775;28;20072;-35
2022/05/29 09:38:51;;;;;;;7.65;2.35;;;;;;;25.10;43.79;95641.31;5116696;28;20056;-35
2022/05/29 09:41:28;;;;;;;8.43;2.60;;;;;;;24.91;44.06;95644.28;5116629;28;20027;-35
2022/05/29 09:44:02;;;;;;;5.50;2.10;;;;;;;24.91;43.83;95647.06;5116371;28;20023;-35
2022/05/29 09:46:32;;;;;;;8.48;3.00;;;;;;;24.85;43.70;95645.72;5116653;28;20090;-35
2022/05/29 09:51:50;;;;;;;10.02;3.13;;;;;;;24.88;43.72;95633.53;5116219;28;20084;-36
2022/05/29 09:54:29;;;;;;;4.88;2.13;;;;;;;24.98;43.39;95657.50;5116495;28;20039;-35
2022/05/29 09:57:19;;;;;;;5.05;2.28;;;;;;;24.70;44.21;95641.50;5116360;28;20487;-35
2022/05/29 09:59:45;;;;;;;7.20;2.28;;;;;;;24.63;44.25;95638.63;5116203;28;20032;-36
2022/05/29 10:02:23;;;;;;;7.78;2.88;;;;;;;24.21;45.45;95644.06;5126537;27;20080;-35
2022/05/29 10:04:53;;;;;;;6.03;1.88;;;;;;;24.46;44.50;95632.75;5137245;27;20027;-35
2022/05/29 10:07:41;;;;;;;11.65;2.90;;;;;;;24.71;43.94;95642.25;5136757;27;20034;-35
2022/05/29 10:10:13;;;;;;;12.82;3.28;;;;;;;24.54;44.69;95644.66;5136671;27;20018;-36
2022/05/29 10:12:47;;;;;;;8.82;2.83;;;;;;;24.24;45.08;95639.50;5136811;27;20019;-35
2022/05/29 10:15:14;;;;;;;7.18;2.67;;;;;;;24.73;43.89;95638.94;5136779;27;20452;-35
2022/05/29 10:17:40;;;;;;;5.97;2.67;;;;;;;24.74;43.93;95641.16;5136448;27;20022;-35
2022/05/29 10:20:33;;;;;;;6.43;2.15;;;;;;;24.73;44.03;95642.44;5136444;27;20486;-35
2022/05/29 10:23:05;;;;;;;6.78;2.88;;;;;;;24.87;43.64;95640.34;5136509;27;20019;-35
2022/05/29 10:25:34;;;;;;;6.70;2.43;;;;;;;25.10;43.09;95633.00;5136458;27;20023;-35
2022/05/29 10:28:12;;;;;;;9.75;2.65;;;;;;;24.44;45.38;95641.59;5136421;27;20030;-35
2022/05/29 10:30:55;;;;;;;12.85;2.78;;;;;;;24.66;45.00;95654.19;5136319;27;20027;-35
2022/05/29 10:33:24;;;;;;;7.57;2.60;;;;;;;25.01;44.06;95645.31;5136440;27;20023;-35
2022/05/29 10:36:18;;;;;;;9.18;2.22;;;;;;;24.48;45.96;95644.03;5136034;27;20042;-35
2022/05/29 10:38:45;;;;;;;8.05;2.10;;;;;;;24.83;44.66;95646.25;5133232;27;20031;-35
2022/05/29 10:41:11;;;;;;;11.10;2.92;;;;;;;24.95;44.82;95641.97;5136214;27;20027;-36
2022/05/29 10:43:44;;;;;;;6.13;2.20;;;;;;;25.16;44.15;95639.16;5135934;27;20030;-35
2022/05/29 10:46:20;;;;;;;12.00;2.72;;;;;;;24.94;45.15;95620.31;5136025;27;20015;-36
2022/05/29 10:49:10;;;;;;;8.70;2.05;;;;;;;25.15;44.50;95637.69;5135742;27;20023;-35
2022/05/29 10:52:14;;;;;;;9.05;2.40;;;;;;;24.97;44.77;95638.63;5136089;27;20012;-35
2022/05/29 10:55:13;;;;;;;7.88;2.33;;;;;;;25.13;44.24;95636.72;5134927;27;20490;-35
2022/05/29 10:58:15;;;;;;;6.70;2.15;;;;;;;25.24;43.74;95631.63;5135484;27;20050;-35
2022/05/29 11:03:17;;;;;;;6.57;2.53;;;;;;;24.81;45.28;95632.19;5135452;27;20027;-35
2022/05/29 11:04:08;;;;;;;7.65;2.33;;;;;;;24.81;45.61;95651.59;5135537;27;20539;-35
2022/05/29 11:06:36;;;;;;;10.57;2.00;;;;;;;24.92;45.03;95639.47;5135506;27;20019;-36
2022/05/29 11:09:10;;;;;;;9.13;2.60;;;;;;;24.72;45.50;95640.22;5135131;27;20055;-35
2022/05/29 11:11:55;;;;;;;;;;;;;;;24.47;46.14;95637.75;5135899;27;20043;-35
2022/05/29 11:14:48;;;;;;;12.63;2.30;;;;;;;24.89;45.62;95635.00;5135622;27;19908;-35
2022/05/29 11:17:56;;;;;;;6.43;2.13;;;;;;;24.98;44.88;95634.56;5135183;27;20471;-36
2022/05/29 11:20:47;;;;;;;6.82;2.45;;;;;;;24.98;44.76;95638.06;5110500;27;20042;-35
2022/05/29 11:23:30;;;;;;;7.00;2.10;;;;;;;24.52;46.48;95645.19;5135191;27;20031;-36
2022/05/29 11:26:16;;;;;;;9.80;2.47;;;;;;;24.89;45.18;95632.22;5135170;27;20475;-35
2022/05/29 11:28:44;;;;;;;8.80;2.58;;;;;;;24.65;45.26;95636.06;5135109;27;20042;-35
2022/05/29 11:31:10;;;;;;;7.88;2.50;;;;;;;25.11;44.17;95640.03;5134974;27;20066;-37
2022/05/29 11:33:50;;;;;;;7.05;2.08;;;;;;;25.00;45.03;95643.84;5135001;27;20054;-35
2022/05/29 11:36:30;;;;;;;7.50;2.45;;;;;;;24.87;45.43;95643.13;5134872;27;20031;-35
2022/05/29 11:39:02;;;;;;;6.85;2.20;;;;;;;24.98;45.07;95629.00;5134361;27;20023;-35
2022/05/29 11:41:36;;;;;;;6.47;2.22;;;;;;;25.07;44.73;95636.13;5134704;27;20447;-36
2022/05/29 11:44:06;;;;;;;6.50;2.53;;;;;;;25.04;44.61;95629.63;5134153;27;20451;-35
2022/05/29 11:52:19;;;;;;;7.65;2.78;;;;;;;24.89;44.51;95619.13;5134602;27;20026;-35
2022/05/29 11:54:58;;;;;;;10.10;2.90;;;;;;;24.70;45.16;95629.66;5134703;27;20064;-36
2022/05/29 11:57:39;;;;;;;7.50;2.33;;;;;;;24.54;45.40;95619.69;5116693;27;20070;-36
2022/05/29 12:00:25;;;;;;;5.78;2.15;;;;;;;24.70;45.00;95622.09;5134859;27;20386;-36
2022/05/29 12:02:55;;;;;;;9.63;2.78;;;;;;;25.12;43.96;95646.34;5134110;27;20058;-35
2022/05/29 12:05:26;;;;;;;10.25;2.53;;;;;;;24.84;43.95;95636.66;5134167;27;20470;-35
2022/05/29 12:08:19;;;;;;;10.77;2.40;;;;;;;25.04;43.71;95621.31;5134547;27;20527;-35
2022/05/29 12:11:33;;;;;;;7.82;2.28;;;;;;;25.26;43.22;95633.88;5134779;27;20072;-36
2022/05/29 12:14:05;;;;;;;6.22;1.92;;;;;;;25.11;43.21;95628.19;5071917;27;20109;-35
2022/05/29 12:16:33;;;;;;;5.32;1.67;;;;;;;25.22;42.93;95644.59;5134419;27;20027;-34
2022/05/29 12:19:03;;;;;;;4.80;2.35;;;;;;;24.96;43.38;95614.97;5095588;28;20031;-35
2022/05/29 12:22:06;;;;;;;5.68;2.30;;;;;;;25.08;43.27;95621.72;5113713;28;20024;-35
2022/05/29 12:24:35;;;;;;;9.98;1.83;;;;;;;25.16;43.13;95627.31;5072504;28;20066;-36
2022/05/29 12:27:12;;;;;;;6.80;2.50;;;;;;;24.84;43.67;95625.56;5133873;27;20027;-35
2022/05/29 12:29:46;;;;;;;4.93;1.92;;;;;;;25.08;43.28;95632.06;5133894;28;20080;-36
2022/05/29 12:32:18;;;;;;;6.18;1.65;;;;;;;25.27;42.75;95627.03;5134269;28;20088;-35
2022/05/29 12:35:13;;;;;;;8.02;2.10;;;;;;;25.29;42.99;95630.75;5134592;28;20019;-35